Time;durP1;ratioP1;P1;durP2;ratioP2;P2;SDS_P1;SDS_P2;PMS_P1;PMS_P2;Temp;Humidity;BMP_temperature;BMP_pressure;BME280_temperature;BME280_humidity;BME280_pressure;Samples;Min_cycle;Max_cycle;Signal;HPM_P1;HPM_P2
2021/09/10 00:00:05;;;;;;;;;;;;;;;;;;5104845;28;19924;-87
2021/09/10 00:02:39;;;;;;;;;;;;;;;;;;5087593;28;19933;-87
2021/09/10 00:05:09;;;;;;;;;;;;;;;;;;5072474;28;19932;-87
2021/09/10 00:07:38;;;;;;;;;;;;;;;;;;5068057;28;19938;-88
2021/09/10 00:10:07;;;;;;;;;;;;;;;;;;5071126;28;19931;-85
2021/09/10 00:12:35;;;;;;;;;;;;;;;;;;5081272;28;19928;-86
2021/09/10 00:15:04;;;;;;;;;;;;;;;;;;5061707;28;19931;-86
2021/09/10 00:17:32;;;;;;;;;;;;;;;;;;5074122;28;19931;-86
2021/09/10 00:20:00;;;;;;;;;;;;;;;;;;5093395;28;19924;-87
2021/09/10 00:22:30;;;;;;;;;;;;;;;;;;5085493;28;19935;-87
2021/09/10 00:24:59;;;;;;;;;;;;;;;;;;5111797;28;19912;-87
2021/09/10 00:27:27;;;;;;;;;;;;;;;;;;5089461;28;19914;-86
2021/09/10 00:29:56;;;;;;;;;;;;;;;;;;5095463;28;20113;-87
2021/09/10 00:32:24;;;;;;;;;;;;;;;;;;5087408;28;20070;-87
2021/09/10 00:34:52;;;;;;;;;;;;;;;;;;5080438;28;19944;-85
2021/09/10 00:37:20;;;;;;;;;;;;;;;;;;5070179;28;20298;-87
2021/09/10 00:39:49;;;;;;;;;;;;;;;;;;5082056;28;20287;-84
2021/09/10 00:42:18;;;;;;;;;;;;;;;;;;5062171;28;19925;-87
2021/09/10 00:44:46;;;;;;;;;;;;;;;;;;5072834;28;20314;-86
2021/09/10 00:47:15;;;;;;;;;;;;;;;;;;5077787;28;19943;-87
2021/09/10 00:49:43;;;;;;;;;;;;;;;;;;5097582;28;19936;-87
2021/09/10 00:52:11;;;;;;;;;;;;;;;;;;5100836;28;19924;-86
2021/09/10 00:54:39;;;;;;;;;;;;;;;;;;5102385;28;19919;-86
2021/09/10 00:57:08;;;;;;;;;;;;;;;;;;5106489;28;19924;-86
2021/09/10 00:59:37;;;;;;;;;;;;;;;;;;5093607;28;19924;-87
2021/09/10 01:02:06;;;;;;;;;;;;;;;;;;5085743;28;19926;-87
2021/09/10 01:04:34;;;;;;;;;;;;;;;;;;5082026;28;19924;-85
2021/09/10 01:07:02;;;;;;;;;;;;;;;;;;5086138;28;19924;-87
2021/09/10 01:09:31;;;;;;;;;;;;;;;;;;5063923;28;19927;-87
2021/09/10 01:11:59;;;;;;;;;;;;;;;;;;5065658;28;20215;-86
2021/09/10 01:14:27;;;;;;;;;;;;;;;;;;5068267;28;20116;-87
2021/09/10 01:16:57;;;;;;;;;;;;;;;;;;5103392;28;19955;-88
2021/09/10 01:19:27;;;;;;;;;;;;;;;;;;5068315;28;19925;-87
2021/09/10 01:21:56;;;;;;;;;;;;;;;;;;5081517;28;19935;-86
2021/09/10 01:24:27;;;;;;;;;;;;;;;;;;5098300;28;19936;-87
2021/09/10 01:26:55;;;;;;;;;;;;;;;;;;5082409;28;19938;-87
2021/09/10 01:29:23;;;;;;;;;;;;;;;;;;5089530;28;19993;-87
2021/09/10 01:31:51;;;;;;;;;;;;;;;;;;5103638;28;19925;-87
2021/09/10 01:34:39;;;;;;;;;;;;;;;;;;5072383;28;19935;-87
2021/09/10 01:37:26;;;;;;;;;;;;;;;;;;5073869;28;19924;-86
2021/09/10 01:40:13;;;;;;;;;;;;;;;;;;5053341;28;19928;-87
2021/09/10 01:43:00;;;;;;;;;;;;;;;;;;5057180;28;19928;-87
2021/09/10 01:45:47;;;;;;;;;;;;;;;;;;5060788;28;19924;-87
2021/09/10 01:48:35;;;;;;;;;;;;;;;;;;5076224;28;19932;-87
2021/09/10 01:51:23;;;;;;;;;;;;;;;;;;5086142;28;19920;-87
2021/09/10 01:54:10;;;;;;;;;;;;;;;;;;5107794;28;19934;-87
2021/09/10 01:56:58;;;;;;;;;;;;;;;;;;5089570;28;19932;-86
2021/09/10 01:59:46;;;;;;;;;;;;;;;;;;5113028;28;19915;-87
2021/09/10 02:02:34;;;;;;;;;;;;;;;;;;5105413;28;19932;-87
2021/09/10 02:05:22;;;;;;;;;;;;;;;;;;5088300;28;19939;-87
2021/09/10 02:08:09;;;;;;;;;;;;;;;;;;5082538;28;19936;-87
2021/09/10 02:10:56;;;;;;;;;;;;;;;;;;5081715;28;19933;-87
2021/09/10 02:13:43;;;;;;;;;;;;;;;;;;5084496;28;19935;-87
2021/09/10 02:16:30;;;;;;;;;;;;;;;;;;5079754;28;19928;-87
2021/09/10 02:19:18;;;;;;;;;;;;;;;;;;5103726;27;19924;-87
2021/09/10 02:22:06;;;;;;;;;;;;;;;;;;5080279;28;20759;-87
2021/09/10 02:24:53;;;;;;;;;;;;;;;;;;5098734;28;19925;-87
2021/09/10 02:27:40;;;;;;;;;;;;;;;;;;5088394;28;19982;-87
2021/09/10 02:30:28;;;;;;;;;;;;;;;;;;5101394;28;19930;-86
2021/09/10 02:33:15;;;;;;;;;;;;;;;;;;5111126;28;19934;-87
2021/09/10 02:36:02;;;;;;;;;;;;;;;;;;5085890;28;19935;-87
2021/09/10 02:38:32;;;;;;;;;;;;;;;;;;5075798;28;19928;-87
2021/09/10 02:41:00;;;;;;;;;;;;;;;;;;5097619;28;20409;-86
2021/09/10 02:43:28;;;;;;;;;;;;;;;;;;5092854;28;19924;-87
2021/09/10 02:45:56;;;;;;;;;;;;;;;;;;5072809;28;19928;-88
2021/09/10 02:48:25;;;;;;;;;;;;;;;;;;5062599;28;19932;-86
2021/09/10 02:50:53;;;;;;;;;;;;;;;;;;5104176;28;19928;-87
2021/09/10 02:53:21;;;;;;;;;;;;;;;;;;5101255;28;19935;-86
2021/09/10 02:55:52;;;;;;;;;;;;;;;;;;5100100;28;19924;-86
2021/09/10 02:58:21;;;;;;;;;;;;;;;;;;5106420;28;19924;-88
2021/09/10 03:00:49;;;;;;;;;;;;;;;;;;5112994;28;19928;-86
2021/09/10 03:03:19;;;;;;;;;;;;;;;;;;5095900;28;19931;-88
2021/09/10 03:05:47;;;;;;;;;;;;;;;;;;5121281;27;19923;-83
2021/09/10 03:08:15;;;;;;;;;;;;;;;;;;5076516;28;19931;-82
2021/09/10 03:10:43;;;;;;;;;;;;;;;;;;5092474;28;20141;-84
2021/09/10 03:13:13;;;;;;;;;;;;;;;;;;5098598;28;19924;-82
2021/09/10 03:15:41;;;;;;;;;;;;;;;;;;5085348;28;19924;-82
2021/09/10 03:18:09;;;;;;;;;;;;;;;;;;5085437;28;19924;-88
2021/09/10 03:20:38;;;;;;;;;;;;;;;;;;5089605;28;19909;-92
2021/09/10 03:23:06;;;;;;;;;;;;;;;;;;5096492;28;19924;-91
2021/09/10 03:25:34;;;;;;;;;;;;;;;;;;5112692;28;19928;-91
2021/09/10 03:28:02;;;;;;;;;;;;;;;;;;5100868;28;19924;-91
2021/09/10 03:30:32;;;;;;;;;;;;;;;;;;5102152;28;19924;-92
2021/09/10 03:33:00;;;;;;;;;;;;;;;;;;5113365;28;19924;-89
2021/09/10 03:35:28;;;;;;;;;;;;;;;;;;5089126;28;19931;-89
2021/09/10 03:37:57;;;;;;;;;;;;;;;;;;5079216;28;19932;-90
2021/09/10 03:40:30;;;;;;;;;;;;;;;;;;5080188;28;20400;-88
2021/09/10 03:42:59;;;;;;;;;;;;;;;;;;5078340;28;20402;-84
2021/09/10 03:45:27;;;;;;;;;;;;;;;;;;5093128;28;19924;-85
2021/09/10 03:47:56;;;;;;;;;;;;;;;;;;5121310;28;19928;-91
2021/09/10 03:50:25;;;;;;;;;;;;;;;;;;5103341;28;19928;-88
2021/09/10 03:52:53;;;;;;;;;;;;;;;;;;5097434;28;19924;-90
2021/09/10 03:55:21;;;;;;;;;;;;;;;;;;5093333;28;19938;-83
2021/09/10 03:57:49;;;;;;;;;;;;;;;;;;5095299;28;19912;-90
2021/09/10 04:00:18;;;;;;;;;;;;;;;;;;5096620;28;19919;-94
2021/09/10 04:02:46;;;;;;;;;;;;;;;;;;5113549;28;19924;-90
2021/09/10 04:05:17;;;;;;;;;;;;;;;;;;5087283;28;19931;-82
2021/09/10 04:07:46;;;;;;;;;;;;;;;;;;5091980;28;19924;-85
2021/09/10 04:10:16;;;;;;;;;;;;;;;;;;5103988;28;19924;-86
2021/09/10 04:12:44;;;;;;;;;;;;;;;;;;5078668;28;20380;-84
2021/09/10 04:15:12;;;;;;;;;;;;;;;;;;5084031;28;19928;-84
2021/09/10 04:17:41;;;;;;;;;;;;;;;;;;5083106;28;19936;-86
2021/09/10 04:20:12;;;;;;;;;;;;;;;;;;5068121;28;19925;-84
2021/09/10 04:22:41;;;;;;;;;;;;;;;;;;5083699;28;19924;-81
2021/09/10 04:25:10;;;;;;;;;;;;;;;;;;5105842;28;19931;-84
2021/09/10 04:27:38;;;;;;;;;;;;;;;;;;5094965;28;19924;-83
2021/09/10 04:30:07;;;;;;;;;;;;;;;;;;5106769;28;19928;-82
2021/09/10 04:32:35;;;;;;;;;;;;;;;;;;5111347;27;19935;-92
2021/09/10 04:35:04;;;;;;;;;;;;;;;;;;5106736;28;19920;-89
2021/09/10 04:37:32;;;;;;;;;;;;;;;;;;5106847;28;19934;-90
2021/09/10 04:40:01;;;;;;;;;;;;;;;;;;5111346;28;20297;-87
2021/09/10 04:42:30;;;;;;;;;;;;;;;;;;5091765;28;19931;-88
2021/09/10 04:44:59;;;;;;;;;;;;;;;;;;5095565;28;19908;-82
2021/09/10 04:47:27;;;;;;;;;;;;;;;;;;5092356;28;19924;-87
2021/09/10 04:49:55;;;;;;;;;;;;;;;;;;5095773;28;19932;-88
2021/09/10 04:52:23;;;;;;;;;;;;;;;;;;5107538;28;19923;-86
2021/09/10 04:54:53;;;;;;;;;;;;;;;;;;5098778;28;19928;-87
2021/09/10 04:57:22;;;;;;;;;;;;;;;;;;5080284;28;19931;-80
2021/09/10 04:59:51;;;;;;;;;;;;;;;;;;5078154;28;19994;-81
2021/09/10 05:02:20;;;;;;;;;;;;;;;;;;5091561;28;19924;-88
2021/09/10 05:04:48;;;;;;;;;;;;;;;;;;5088895;28;19924;-89
2021/09/10 05:07:17;;;;;;;;;;;;;;;;;;5095321;28;19931;-91
2021/09/10 05:09:45;;;;;;;;;;;;;;;;;;5083966;28;19924;-90
2021/09/10 05:12:13;;;;;;;;;;;;;;;;;;5083213;28;19928;-91
2021/09/10 05:14:43;;;;;;;;;;;;;;;;;;5100526;28;19923;-88
2021/09/10 05:17:11;;;;;;;;;;;;;;;;;;5092675;28;19908;-88
2021/09/10 05:19:39;;;;;;;;;;;;;;;;;;5101575;28;19932;-90
2021/09/10 05:22:07;;;;;;;;;;;;;;;;;;5092207;28;19932;-89
2021/09/10 05:24:36;;;;;;;;;;;;;;;;;;5104056;28;19924;-91
2021/09/10 05:27:04;;;;;;;;;;;;;;;;;;5093352;28;20443;-86
2021/09/10 05:29:32;;;;;;;;;;;;;;;;;;5098317;28;19919;-90
2021/09/10 05:32:02;;;;;;;;;;;;;;;;;;5110433;28;19935;-92
2021/09/10 05:34:30;;;;;;;;;;;;;;;;;;5102152;28;19928;-90
2021/09/10 05:36:58;;;;;;;;;;;;;;;;;;5102677;28;20070;-90
2021/09/10 05:39:27;;;;;;;;;;;;;;;;;;5122221;28;19920;-91
2021/09/10 05:41:55;;;;;;;;;;;;;;;;;;5116219;28;19928;-93
2021/09/10 05:44:23;;;;;;;;;;;;;;;;;;5100380;28;19912;-92
2021/09/10 05:46:51;;;;;;;;;;;;;;;;;;5121492;28;19912;-92
2021/09/10 05:49:21;;;;;;;;;;;;;;;;;;5115982;28;19927;-90
2021/09/10 05:51:49;;;;;;;;;;;;;;;;;;5098354;28;19923;-90
2021/09/10 05:54:17;;;;;;;;;;;;;;;;;;5118249;28;19928;-88
2021/09/10 05:56:45;;;;;;;;;;;;;;;;;;5122591;28;19924;-90
2021/09/10 05:59:14;;;;;;;;;;;;;;;;;;5115000;28;19923;-90
2021/09/10 06:01:42;;;;;;;;;;;;;;;;;;5097749;28;19924;-90
2021/09/10 06:04:10;;;;;;;;;;;;;;;;;;5102768;28;19912;-89
2021/09/10 06:06:40;;;;;;;;;;;;;;;;;;5123558;28;19943;-91
2021/09/10 06:09:09;;;;;;;;;;;;;;;;;;5115988;28;19931;-92
2021/09/10 06:11:37;;;;;;;;;;;;;;;;;;5098980;28;19922;-92
2021/09/10 06:14:06;;;;;;;;;;;;;;;;;;5102363;28;19918;-91
2021/09/10 06:16:34;;;;;;;;;;;;;;;;;;5110644;28;20034;-91
2021/09/10 06:19:03;;;;;;;;;;;;;;;;;;5099168;28;19912;-93
2021/09/10 06:21:31;;;;;;;;;;;;;;;;;;5097391;28;19912;-92
2021/09/10 06:24:00;;;;;;;;;;;;;;;;;;5100031;28;19918;-92
2021/09/10 06:26:29;;;;;;;;;;;;;;;;;;5110840;28;19928;-90
2021/09/10 06:28:57;;;;;;;;;;;;;;;;;;5104935;28;19928;-88
2021/09/10 06:31:25;;;;;;;;;;;;;;;;;;5117332;28;19930;-88
2021/09/10 06:33:53;;;;;;;;;;;;;;;;;;5097154;28;19933;-90
2021/09/10 06:36:22;;;;;;;;;;;;;;;;;;5099883;28;19912;-92
2021/09/10 06:38:50;;;;;;;;;;;;;;;;;;5110643;28;19908;-91
2021/09/10 06:41:19;;;;;;;;;;;;;;;;;;5103412;28;19916;-90
2021/09/10 06:43:48;;;;;;;;;;;;;;;;;;5097928;28;19934;-90
2021/09/10 06:46:16;;;;;;;;;;;;;;;;;;5098625;28;19912;-91
2021/09/10 06:48:44;;;;;;;;;;;;;;;;;;5123023;28;19930;-88
2021/09/10 06:51:12;;;;;;;;;;;;;;;;;;5099536;28;19924;-87
2021/09/10 06:53:40;;;;;;;;;;;;;;;;;;5087734;28;20773;-84
2021/09/10 06:56:09;;;;;;;;;;;;;;;;;;5083615;28;19931;-84
2021/09/10 06:58:38;;;;;;;;;;;;;;;;;;5109634;28;19924;-85
2021/09/10 07:01:07;;;;;;;;;;;;;;;;;;5112000;28;19932;-87
2021/09/10 07:03:35;;;;;;;;;;;;;;;;;;5099466;28;19935;-94
2021/09/10 07:06:04;;;;;;;;;;;;;;;;;;5107481;28;19912;-94
2021/09/10 07:08:33;;;;;;;;;;;;;;;;;;5100807;28;19924;-90
2021/09/10 07:11:03;;;;;;;;;;;;;;;;;;5095849;28;19924;-94
2021/09/10 07:13:31;;;;;;;;;;;;;;;;;;5102408;28;19912;-94
2021/09/10 07:16:02;;;;;;;;;;;;;;;;;;5114307;28;19931;-93
2021/09/10 07:18:30;;;;;;;;;;;;;;;;;;5105340;28;19930;-88
2021/09/10 07:20:59;;;;;;;;;;;;;;;;;;5072812;28;19929;-88
2021/09/10 07:23:30;;;;;;;;;;;;;;;;;;5072606;28;19924;-89
2021/09/10 07:26:02;;;;;;;;;;;;;;;;;;5077250;28;20405;-91
2021/09/10 07:28:31;;;;;;;;;;;;;;;;;;5074406;28;19928;-91
2021/09/10 07:31:01;;;;;;;;;;;;;;;;;;5069143;28;20301;-90
2021/09/10 07:33:30;;;;;;;;;;;;;;;;;;5089309;28;19924;-94
2021/09/10 07:35:58;;;;;;;;;;;;;;;;;;5093338;28;19928;-90
2021/09/10 07:38:30;;;;;;;;;;;;;;;;;;5095285;28;19924;-93
2021/09/10 07:40:59;;;;;;;;;;;;;;;;;;5096329;28;19924;-95
2021/09/10 07:43:28;;;;;;;;;;;;;;;;;;5097953;28;19918;-94
2021/09/10 07:45:57;;;;;;;;;;;;;;;;;;5089240;28;19925;-94
2021/09/10 07:48:27;;;;;;;;;;;;;;;;;;5092565;28;19912;-92
2021/09/10 07:50:55;;;;;;;;;;;;;;;;;;5055758;28;19935;-88
2021/09/10 07:53:23;;;;;;;;;;;;;;;;;;5072562;28;19924;-89
2021/09/10 07:55:52;;;;;;;;;;;;;;;;;;5073859;28;19931;-89
2021/09/10 07:58:21;;;;;;;;;;;;;;;;;;5072160;28;19933;-88
2021/09/10 08:00:49;;;;;;;;;;;;;;;;;;5080508;28;19928;-90
2021/09/10 08:03:18;;;;;;;;;;;;;;;;;;5083518;28;19928;-90
2021/09/10 08:05:48;;;;;;;;;;;;;;;;;;5105565;28;19922;-92
2021/09/10 08:08:16;;;;;;;;;;;;;;;;;;5090814;28;19924;-94
2021/09/10 08:10:44;;;;;;;;;;;;;;;;;;5093471;28;19912;-94
2021/09/10 08:13:13;;;;;;;;;;;;;;;;;;5095586;28;19914;-93
2021/09/10 08:15:41;;;;;;;;;;;;;;;;;;5095885;28;19924;-93
2021/09/10 08:18:10;;;;;;;;;;;;;;;;;;5091130;28;19922;-94
2021/09/10 08:20:38;;;;;;;;;;;;;;;;;;5073834;28;19925;-88
2021/09/10 08:23:08;;;;;;;;;;;;;;;;;;5069571;28;19963;-92
2021/09/10 08:25:36;;;;;;;;;;;;;;;;;;5074314;28;20034;-90
2021/09/10 08:28:05;;;;;;;;;;;;;;;;;;5065357;28;19928;-91
2021/09/10 08:30:33;;;;;;;;;;;;;;;;;;5084699;28;19924;-90
2021/09/10 08:33:02;;;;;;;;;;;;;;;;;;5074979;28;19931;-91
2021/09/10 08:35:30;;;;;;;;;;;;;;;;;;5074863;28;19928;-90
2021/09/10 08:37:59;;;;;;;;;;;;;;;;;;5068595;28;19924;-88
2021/09/10 08:40:28;;;;;;;;;;;;;;;;;;5067357;28;19925;-91
2021/09/10 08:42:57;;;;;;;;;;;;;;;;;;5064542;28;19928;-90
2021/09/10 08:45:26;;;;;;;;;;;;;;;;;;5067517;28;19924;-91
2021/09/10 08:47:55;;;;;;;;;;;;;;;;;;5078185;28;19927;-88
2021/09/10 08:50:23;;;;;;;;;;;;;;;;;;5082729;28;19923;-92
2021/09/10 08:52:52;;;;;;;;;;;;;;;;;;5094331;28;19918;-90
2021/09/10 08:55:20;;;;;;;;;;;;;;;;;;5108130;28;19938;-92
2021/09/10 08:57:50;;;;;;;;;;;;;;;;;;5119785;28;19928;-92
2021/09/10 09:00:19;;;;;;;;;;;;;;;;;;5093344;28;19929;-92
2021/09/10 09:02:58;;;;;;;;;;;;;;;;;;5078799;28;19931;-89
2021/09/10 09:05:26;;;;;;;;;;;;;;;;;;5070832;28;20301;-89
2021/09/10 09:08:05;;;;;;;;;;;;;;;;;;5077425;28;22033;-88
2021/09/10 09:10:48;;;;;;;;;;;;;;;;;;5074025;28;19932;-89
2021/09/10 09:13:17;;;;;;;;;;;;;;;;;;5068974;28;19935;-90
2021/09/10 09:15:46;;;;;;;;;;;;;;;;;;5090543;28;19928;-88
2021/09/10 09:18:14;;;;;;;;;;;;;;;;;;5070478;28;19924;-89
2021/09/10 09:20:49;;;;;;;;;;;;;;;;;;5087263;28;19935;-90
2021/09/10 09:23:17;;;;;;;;;;;;;;;;;;5084152;28;19932;-89
2021/09/10 09:25:48;;;;;;;;;;;;;;;;;;5075641;28;19931;-88
2021/09/10 09:28:19;;;;;;;;;;;;;;;;;;5111412;28;19924;-90
2021/09/10 09:30:48;;;;;;;;;;;;;;;;;;5091418;28;19912;-90
2021/09/10 09:33:18;;;;;;;;;;;;;;;;;;5098531;28;19935;-91
2021/09/10 09:35:47;;;;;;;;;;;;;;;;;;5078208;28;19924;-90
2021/09/10 09:38:17;;;;;;;;;;;;;;;;;;5075004;28;19939;-88
2021/09/10 09:40:46;;;;;;;;;;;;;;;;;;5075839;28;19924;-86
2021/09/10 09:43:16;;;;;;;;;;;;;;;;;;5076251;28;19939;-88
2021/09/10 09:45:47;;;;;;;;;;;;;;;;;;5082790;28;19928;-88
2021/09/10 09:48:15;;;;;;;;;;;;;;;;;;5069099;28;19924;-87
2021/09/10 09:50:44;;;;;;;;;;;;;;;;;;5089060;28;19923;-91
2021/09/10 09:53:13;;;;;;;;;;;;;;;;;;5100096;28;19920;-91
2021/09/10 09:55:42;;;;;;;;;;;;;;;;;;5092337;28;19920;-90
2021/09/10 09:58:10;;;;;;;;;;;;;;;;;;5097522;28;19924;-92
2021/09/10 10:00:40;;;;;;;;;;;;;;;;;;5093405;28;19924;-89
2021/09/10 10:03:11;;;;;;;;;;;;;;;;;;5110371;28;19912;-90
2021/09/10 10:05:49;;;;;;;;;;;;;;;;;;5082582;28;19924;-88
2021/09/10 10:08:18;;;;;;;;;;;;;;;;;;5095517;28;19931;-86
2021/09/10 10:10:47;;;;;;;;;;;;;;;;;;5076858;28;19924;-86
2021/09/10 10:13:20;;;;;;;;;;;;;;;;;;5077172;28;19923;-87
2021/09/10 10:15:49;;;;;;;;;;;;;;;;;;5093667;28;20118;-85
2021/09/10 10:18:32;;;;;;;;;;;;;;;;;;5081500;28;20386;-85
2021/09/10 10:21:02;;;;;;;;;;;;;;;;;;5111709;28;19918;-91
2021/09/10 10:23:49;;;;;;;;;;;;;;;;;;5113847;28;19925;-90
2021/09/10 10:26:18;;;;;;;;;;;;;;;;;;5108326;28;19935;-89
2021/09/10 10:28:47;;;;;;;;;;;;;;;;;;5096073;28;19908;-90
2021/09/10 10:31:41;;;;;;;;;;;;;;;;;;5111566;28;19924;-90
2021/09/10 10:34:09;;;;;;;;;;;;;;;;;;5072028;28;19932;-88
2021/09/10 10:36:39;;;;;;;;;;;;;;;;;;5074406;28;20390;-91
2021/09/10 10:39:18;;;;;;;;;;;;;;;;;;5113867;28;19918;-91
2021/09/10 10:41:47;;;;;;;;;;;;;;;;;;5113540;27;19925;-86
2021/09/10 10:44:48;;;;;;;;;;;;;;;;;;5078495;28;19928;-89
2021/09/10 10:47:17;;;;;;;;;;;;;;;;;;5078629;28;20425;-91
2021/09/10 10:49:46;;;;;;;;;;;;;;;;;;5115521;28;19934;-88
2021/09/10 10:52:32;;;;;;;;;;;;;;;;;;5100248;28;19924;-90
2021/09/10 10:55:15;;;;;;;;;;;;;;;;;;5114104;28;19930;-92
2021/09/10 10:57:44;;;;;;;;;;;;;;;;;;5088685;28;19938;-91
2021/09/10 11:00:31;;;;;;;;;;;;;;;;;;5103495;28;19934;-91
2021/09/10 11:03:14;;;;;;;;;;;;;;;;;;5090146;28;19930;-88
2021/09/10 11:05:43;;;;;;;;;;;;;;;;;;5096158;28;19924;-88
2021/09/10 11:08:12;;;;;;;;;;;;;;;;;;5068593;28;19924;-87
2021/09/10 11:10:41;;;;;;;;;;;;;;;;;;5080581;28;19924;-88
2021/09/10 11:13:10;;;;;;;;;;;;;;;;;;5070883;28;19931;-88
2021/09/10 11:15:38;;;;;;;;;;;;;;;;;;5076297;28;20321;-88
2021/09/10 11:18:07;;;;;;;;;;;;;;;;;;5072886;28;19928;-88
2021/09/10 11:20:37;;;;;;;;;;;;;;;;;;5080796;28;19924;-88
2021/09/10 11:23:05;;;;;;;;;;;;;;;;;;5094646;28;19919;-86
2021/09/10 11:25:34;;;;;;;;;;;;;;;;;;5098426;28;19930;-87
2021/09/10 11:28:12;;;;;;;;;;;;;;;;;;5087082;28;19924;-87
2021/09/10 11:30:41;;;;;;;;;;;;;;;;;;5096814;28;20064;-87
2021/09/10 11:33:14;;;;;;;;;;;;;;;;;;5096586;28;20002;-87
2021/09/10 11:35:42;;;;;;;;;;;;;;;;;;5089254;28;19948;-87
2021/09/10 11:38:12;;;;;;;;;;;;;;;;;;5080568;28;19940;-88
2021/09/10 11:40:41;;;;;;;;;;;;;;;;;;5072585;28;19924;-86
2021/09/10 11:43:11;;;;;;;;;;;;;;;;;;5066703;28;19928;-88
2021/09/10 11:45:45;;;;;;;;;;;;;;;;;;5088431;28;19935;-86
2021/09/10 11:48:19;;;;;;;;;;;;;;;;;;5069816;28;19932;-87
2021/09/10 11:50:52;;;;;;;;;;;;;;;;;;5112472;28;19912;-87
2021/09/10 11:53:24;;;;;;;;;;;;;;;;;;5106901;28;19932;-87
2021/09/10 11:55:55;;;;;;;;;;;;;;;;;;5097232;28;19912;-86
2021/09/10 11:58:40;;;;;;;;;;;;;;;;;;5098552;28;19924;-87
2021/09/10 12:01:19;;;;;;;;;;;;;;;;;;5092988;28;19928;-86
2021/09/10 12:03:50;;;;;;;;;;;;;;;;;;5110304;28;19908;-88
2021/09/10 12:06:20;;;;;;;;;;;;;;;;;;5091669;28;20297;-88
2021/09/10 12:09:08;;;;;;;;;;;;;;;;;;5054767;28;19932;-89
2021/09/10 12:11:37;;;;;;;;;;;;;;;;;;5071328;28;19924;-88
2021/09/10 12:14:15;;;;;;;;;;;;;;;;;;5082489;28;19939;-89
2021/09/10 12:16:46;;;;;;;;;;;;;;;;;;5063873;28;19935;-88
2021/09/10 12:19:15;;;;;;;;;;;;;;;;;;5085030;28;19936;-87
2021/09/10 12:21:44;;;;;;;;;;;;;;;;;;5092730;28;19939;-87
2021/09/10 12:24:12;;;;;;;;;;;;;;;;;;5094581;28;19928;-86
2021/09/10 12:26:48;;;;;;;;;;;;;;;;;;5108495;28;19947;-85
2021/09/10 12:29:23;;;;;;;;;;;;;;;;;;5095279;28;19925;-85
2021/09/10 12:31:52;;;;;;;;;;;;;;;;;;5096674;28;19912;-85
2021/09/10 12:34:22;;;;;;;;;;;;;;;;;;5089838;28;19924;-86
2021/09/10 12:36:50;;;;;;;;;;;;;;;;;;5071927;28;19925;-87
2021/09/10 12:39:23;;;;;;;;;;;;;;;;;;5085762;28;19946;-85
2021/09/10 12:41:58;;;;;;;;;;;;;;;;;;5068239;28;19928;-87
2021/09/10 12:44:26;;;;;;;;;;;;;;;;;;5070852;28;19935;-87
2021/09/10 12:46:56;;;;;;;;;;;;;;;;;;5066234;28;19943;-86
2021/09/10 12:49:25;;;;;;;;;;;;;;;;;;5085371;28;20385;-85
2021/09/10 12:51:58;;;;;;;;;;;;;;;;;;5084615;28;20013;-85
2021/09/10 12:54:26;;;;;;;;;;;;;;;;;;5103344;28;19928;-85
2021/09/10 12:56:56;;;;;;;;;;;;;;;;;;5070385;28;19932;-84
2021/09/10 12:59:24;;;;;;;;;;;;;;;;;;5068002;28;19935;-85
2021/09/10 13:01:58;;;;;;;;;;;;;;;;;;5105515;28;19924;-86
2021/09/10 13:04:26;;;;;;;;;;;;;;;;;;5100322;28;19912;-83
2021/09/10 13:06:56;;;;;;;;;;;;;;;;;;5092490;28;19939;-83
2021/09/10 13:09:28;;;;;;;;;;;;;;;;;;5090053;28;19932;-86
2021/09/10 13:11:58;;;;;;;;;;;;;;;;;;5070890;28;19935;-86
2021/09/10 13:14:27;;;;;;;;;;;;;;;;;;5070961;28;19931;-86
2021/09/10 13:16:57;;;;;;;;;;;;;;;;;;5069568;28;20274;-87
2021/09/10 13:19:26;;;;;;;;;;;;;;;;;;5069683;28;19924;-88
2021/09/10 13:21:54;;;;;;;;;;;;;;;;;;5096433;28;19912;-87
2021/09/10 13:27:40;;;;;;;;;;;;;;;;;;5094726;28;19950;-85
2021/09/10 13:30:12;;;;;;;;;;;;;;;;;;5111244;28;19939;-85
2021/09/10 13:32:43;;;;;;;;;;;;;;;;;;5093829;28;19913;-87
2021/09/10 13:35:12;;;;;;;;;;;;;;;;;;5089988;28;19982;-86
2021/09/10 13:37:40;;;;;;;;;;;;;;;;;;5086828;28;19924;-86
2021/09/10 13:40:11;;;;;;;;;;;;;;;;;;5088110;28;19932;-86
2021/09/10 13:42:39;;;;;;;;;;;;;;;;;;5062743;28;19931;-85
2021/09/10 13:45:09;;;;;;;;;;;;;;;;;;5086126;28;20349;-85
2021/09/10 13:47:38;;;;;;;;;;;;;;;;;;5072022;28;19928;-85
2021/09/10 13:50:08;;;;;;;;;;;;;;;;;;5063794;28;19947;-86
2021/09/10 13:52:38;;;;;;;;;;;;;;;;;;5088938;28;19943;-84
2021/09/10 13:55:07;;;;;;;;;;;;;;;;;;5102741;28;19911;-84
2021/09/10 13:57:39;;;;;;;;;;;;;;;;;;5090576;28;19935;-84
2021/09/10 14:00:08;;;;;;;;;;;;;;;;;;5115795;28;19932;-87
2021/09/10 14:02:44;;;;;;;;;;;;;;;;;;5103584;28;19928;-86
2021/09/10 14:05:14;;;;;;;;;;;;;;;;;;5088326;28;19923;-86
2021/09/10 14:07:43;;;;;;;;;;;;;;;;;;5078235;28;20428;-85
2021/09/10 14:10:15;;;;;;;;;;;;;;;;;;5104973;27;19924;-86
2021/09/10 14:12:44;;;;;;;;;;;;;;;;;;5061948;28;19930;-87
2021/09/10 14:15:15;;;;;;;;;;;;;;;;;;5059140;28;19928;-87
2021/09/10 14:17:44;;;;;;;;;;;;;;;;;;5060246;28;20378;-87
2021/09/10 14:20:13;;;;;;;;;;;;;;;;;;5066585;28;19932;-87
2021/09/10 14:22:44;;;;;;;;;;;;;;;;;;5099347;28;19934;-86
2021/09/10 14:25:13;;;;;;;;;;;;;;;;;;5097404;28;19919;-85
2021/09/10 14:27:42;;;;;;;;;;;;;;;;;;5105619;28;19925;-86
2021/09/10 14:30:11;;;;;;;;;;;;;;;;;;5109436;28;19908;-85
2021/09/10 14:32:39;;;;;;;;;;;;;;;;;;5095317;28;19924;-86
2021/09/10 14:35:08;;;;;;;;;;;;;;;;;;5098689;28;19994;-85
2021/09/10 14:37:36;;;;;;;;;;;;;;;;;;5073032;28;19928;-86
2021/09/10 14:40:07;;;;;;;;;;;;;;;;;;5067636;28;19925;-86
2021/09/10 14:42:35;;;;;;;;;;;;;;;;;;5072055;28;19924;-85
2021/09/10 14:45:04;;;;;;;;;;;;;;;;;;5082856;28;19924;-85
2021/09/10 14:47:32;;;;;;;;;;;;;;;;;;5088951;28;20282;-86
2021/09/10 14:50:02;;;;;;;;;;;;;;;;;;5072825;28;20440;-85
2021/09/10 14:52:30;;;;;;;;;;;;;;;;;;5075020;28;19932;-86
2021/09/10 14:54:58;;;;;;;;;;;;;;;;;;5087558;28;20322;-87
2021/09/10 14:57:28;;;;;;;;;;;;;;;;;;5102776;27;19924;-88
2021/09/10 15:00:08;;;;;;;;;;;;;;;;;;5073393;28;19935;-88
2021/09/10 15:02:43;;;;;;;;;;;;;;;;;;5076281;28;20303;-85
2021/09/10 15:05:19;;;;;;;;;;;;;;;;;;5076729;28;19927;-88
2021/09/10 15:08:03;;;;;;;;;;;;;;;;;;5095176;28;19908;-87
2021/09/10 15:10:42;;;;;;;;;;;;;;;;;;5097341;28;19912;-88
2021/09/10 15:13:16;;;;;;;;;;;;;;;;;;5087049;28;19930;-88
2021/09/10 15:16:01;;;;;;;;;;;;;;;;;;5095265;28;19908;-89
2021/09/10 15:18:31;;;;;;;;;;;;;;;;;;5096105;28;20144;-87
2021/09/10 15:20:59;;;;;;;;;;;;;;;;;;5101701;28;20956;-87
2021/09/10 15:23:28;;;;;;;;;;;;;;;;;;5074918;28;19932;-87
2021/09/10 15:25:58;;;;;;;;;;;;;;;;;;5085507;28;19935;-87
2021/09/10 15:28:36;;;;;;;;;;;;;;;;;;5106316;28;19912;-87
2021/09/10 15:31:09;;;;;;;;;;;;;;;;;;5098454;28;19909;-88
2021/09/10 15:33:38;;;;;;;;;;;;;;;;;;5066428;28;19928;-87
2021/09/10 15:36:07;;;;;;;;;;;;;;;;;;5073730;28;20344;-87
2021/09/10 15:38:35;;;;;;;;;;;;;;;;;;5071502;28;19943;-87
2021/09/10 15:41:04;;;;;;;;;;;;;;;;;;5073245;28;20305;-88
2021/09/10 15:43:33;;;;;;;;;;;;;;;;;;5085407;28;19925;-87
2021/09/10 15:46:02;;;;;;;;;;;;;;;;;;5084908;28;19924;-88
2021/09/10 15:48:32;;;;;;;;;;;;;;;;;;5075389;28;19928;-88
2021/09/10 15:51:01;;;;;;;;;;;;;;;;;;5083347;28;19935;-89
2021/09/10 15:53:29;;;;;;;;;;;;;;;;;;5082735;28;19925;-88
2021/09/10 15:55:57;;;;;;;;;;;;;;;;;;5088850;28;19935;-88
2021/09/10 15:58:26;;;;;;;;;;;;;;;;;;5069203;28;19928;-87
2021/09/10 16:00:56;;;;;;;;;;;;;;;;;;5073815;28;19931;-88
2021/09/10 16:03:25;;;;;;;;;;;;;;;;;;5066298;28;19924;-88
2021/09/10 16:05:55;;;;;;;;;;;;;;;;;;5073594;28;20439;-87
2021/09/10 16:08:25;;;;;;;;;;;;;;;;;;5073092;28;19932;-87
2021/09/10 16:10:54;;;;;;;;;;;;;;;;;;5065642;28;19924;-88
2021/09/10 16:13:23;;;;;;;;;;;;;;;;;;5069182;28;19924;-87
2021/09/10 16:15:53;;;;;;;;;;;;;;;;;;5069565;28;19930;-90
2021/09/10 16:18:25;;;;;;;;;;;;;;;;;;5071430;28;19932;-88
2021/09/10 16:20:56;;;;;;;;;;;;;;;;;;5084517;28;20344;-88
2021/09/10 16:23:25;;;;;;;;;;;;;;;;;;5066441;28;19924;-90
2021/09/10 16:25:54;;;;;;;;;;;;;;;;;;5060639;28;19928;-89
2021/09/10 16:28:24;;;;;;;;;;;;;;;;;;5088698;28;20408;-89
2021/09/10 16:30:53;;;;;;;;;;;;;;;;;;5102276;28;19932;-89
2021/09/10 16:33:24;;;;;;;;;;;;;;;;;;5071128;28;21390;-88
2021/09/10 16:35:52;;;;;;;;;;;;;;;;;;5086911;28;19924;-87
2021/09/10 16:38:21;;;;;;;;;;;;;;;;;;5082842;28;19928;-88
2021/09/10 16:40:49;;;;;;;;;;;;;;;;;;5101746;28;19928;-88
2021/09/10 16:43:17;;;;;;;;;;;;;;;;;;5086328;28;19928;-88
2021/09/10 16:45:45;;;;;;;;;;;;;;;;;;5071404;28;19925;-88
2021/09/10 16:48:13;;;;;;;;;;;;;;;;;;5086752;28;20283;-87
2021/09/10 16:51:00;;;;;;;;;;;;;;;;;;5059803;28;19924;-88
2021/09/10 16:53:28;;;;;;;;;;;;;;;;;;5087367;28;19924;-87
2021/09/10 16:55:58;;;;;;;;;;;;;;;;;;5103570;28;19923;-88
2021/09/10 16:58:26;;;;;;;;;;;;;;;;;;5075376;28;19931;-86
2021/09/10 17:00:55;;;;;;;;;;;;;;;;;;5070724;28;20364;-87
2021/09/10 17:03:23;;;;;;;;;;;;;;;;;;5089565;28;19924;-87
2021/09/10 17:05:52;;;;;;;;;;;;;;;;;;5092965;28;20381;-86
2021/09/10 17:08:24;;;;;;;;;;;;;;;;;;5069984;28;20376;-88
2021/09/10 17:10:52;;;;;;;;;;;;;;;;;;5068341;28;19928;-89
2021/09/10 17:13:20;;;;;;;;;;;;;;;;;;5063826;28;20310;-85